| time (UTC) | temp F | wind direction | speed MPH | gust MPH | rain 1hr in | rain 24hr in | rain mn in | humidity % | barometer mb |
| 20260901191522 | 74 | 33 | 12.0 | 19.0 | 0.00 | 0.07 | 0.00 | 46 | 1008.8 |
| 20260901190011 | 74 | 274 | 6.0 | 16.0 | 0.00 | 0.07 | 0.00 | 48 | 1008.9 |
| 20260901184512 | 73 | 331 | 9.0 | 15.0 | 0.00 | 0.07 | 0.00 | 48 | 1009.3 |
| 20260901183006 | 72 | 18 | 10.0 | 15.0 | 0.00 | 0.07 | 0.00 | 48 | 1009.4 |
| 20260901181504 | 72 | 62 | 3.0 | 14.0 | 0.00 | 0.07 | 0.00 | 49 | 1009.8 |
| 20260901180005 | 72 | 314 | 3.0 | 14.0 | 0.00 | 0.07 | 0.00 | 48 | 1010.0 |
| 20260901174503 | 72 | 240 | 6.0 | 12.0 | 0.00 | 0.07 | 0.00 | 47 | 1009.8 |
| 20260901173001 | 72 | 315 | 5.0 | 13.0 | 0.00 | 0.07 | 0.00 | 46 | 1009.7 |
| 20260901171604 | 71 | 352 | 6.0 | 13.0 | 0.00 | 0.07 | 0.00 | 47 | 1009.7 |
| 20260901170057 | 71 | 352 | 8.0 | 16.0 | 0.00 | 0.07 | 0.00 | 47 | 1009.7 |
| 20260901164553 | 69 | 1 | 6.0 | 11.0 | 0.00 | 0.07 | 0.00 | 49 | 1009.6 |
| 20260901163052 | 69 | 325 | 3.0 | 12.0 | 0.00 | 0.07 | 0.00 | 49 | 1009.5 |
| 20260901161606 | 68 | 57 | 7.0 | 16.0 | 0.00 | 0.07 | 0.00 | 50 | 1009.6 |
| 20260901160052 | 68 | 337 | 5.0 | 16.0 | 0.00 | 0.07 | 0.00 | 50 | 1009.5 |
| 20260901154554 | 68 | 333 | 9.0 | 18.0 | 0.00 | 0.07 | 0.00 | 50 | 1009.2 |
| 20260901153050 | 67 | 308 | 9.0 | 18.0 | 0.00 | 0.07 | 0.00 | 50 | 1009.4 |
| 20260901151542 | 67 | 319 | 5.0 | 12.0 | 0.00 | 0.07 | 0.00 | 52 | 1009.6 |
| 20260901150042 | 66 | 154 | 2.0 | 15.0 | 0.00 | 0.07 | 0.00 | 53 | 1009.6 |
| 20260901144541 | 63 | 312 | 6.0 | 15.0 | 0.00 | 0.07 | 0.00 | 59 | 1009.6 |
| 20260901143042 | 62 | 70 | 6.0 | 20.0 | 0.00 | 0.07 | 0.00 | 63 | 1009.6 |
| 20260901141538 | 62 | 267 | 4.0 | 14.0 | 0.00 | 0.07 | 0.00 | 62 | 1009.3 |
| 20260901140032 | 63 | 252 | 6.0 | 17.0 | 0.00 | 0.07 | 0.00 | 61 | 1009.1 |
| 20260901134531 | 61 | 172 | 10.0 | 19.0 | 0.00 | 0.07 | 0.00 | 64 | 1009.2 |
| 20260901133033 | 61 | 298 | 2.0 | 16.0 | 0.00 | 0.07 | 0.00 | 66 | 1009.2 |
| 20260901131528 | 60 | 240 | 12.0 | 17.0 | 0.00 | 0.07 | 0.00 | 68 | 1009.2 |
| 20260901130028 | 61 | 253 | 10.0 | 15.0 | 0.00 | 0.07 | 0.00 | 68 | 1009.1 |
| 20260901124526 | 62 | 210 | 8.0 | 13.0 | 0.00 | 0.07 | 0.00 | 63 | 1008.9 |
| 20260901123025 | 62 | 311 | 6.0 | 14.0 | 0.00 | 0.07 | 0.00 | 60 | 1008.9 |
| 20260901121524 | 62 | 316 | 2.0 | 9.0 | 0.00 | 0.07 | 0.00 | 59 | 1009.1 |
| 20260901120023 | 61 | 231 | 4.0 | 14.0 | 0.00 | 0.07 | 0.00 | 65 | 1009.1 |
| 20260901114522 | 63 | 246 | 6.0 | 12.0 | 0.00 | 0.07 | 0.00 | 60 | 1009.2 |
| 20260901113022 | 63 | 153 | 11.0 | 15.0 | 0.00 | 0.07 | 0.00 | 58 | 1008.9 |
| 20260901111521 | 63 | 136 | 3.0 | 12.0 | 0.00 | 0.07 | 0.00 | 57 | 1008.9 |
| 20260901110023 | 63 | 111 | 7.0 | 16.0 | 0.00 | 0.07 | 0.00 | 58 | 1008.7 |
| 20260901104518 | 63 | 191 | 7.0 | 16.0 | 0.00 | 0.07 | 0.00 | 58 | 1008.8 |
| 20260901103014 | 62 | 66 | 6.0 | 19.0 | 0.00 | 0.07 | 0.00 | 60 | 1008.9 |
| 20260901101513 | 62 | 1 | 9.0 | 20.0 | 0.00 | 0.07 | 0.00 | 60 | 1008.7 |
| 20260901100011 | 61 | 320 | 6.0 | 18.0 | 0.00 | 0.07 | 0.00 | 64 | 1009.1 |
| 20260901094509 | 61 | 67 | 6.0 | 14.0 | 0.00 | 0.07 | 0.00 | 64 | 1008.9 |
| 20260901093007 | 61 | 280 | 7.0 | 21.0 | 0.00 | 0.07 | 0.00 | 64 | 1008.8 |
| 20260901091510 | 61 | 6 | 5.0 | 25.0 | 0.00 | 0.07 | 0.00 | 66 | 1008.7 |
| 20260901090008 | 60 | 19 | 7.0 | 21.0 | 0.00 | 0.07 | 0.00 | 71 | 1008.3 |
| 20260901084503 | 60 | 329 | 4.0 | 14.0 | 0.00 | 0.07 | 0.00 | 72 | 1008.8 |
| 20260901083002 | 60 | 323 | 6.0 | 12.0 | 0.00 | 0.07 | 0.00 | 75 | 1009.0 |
| 20260901081600 | 60 | 346 | 3.0 | 8.0 | 0.00 | 0.07 | 0.00 | 75 | 1009.1 |
| 20260901080105 | 60 | 15 | 5.0 | 14.0 | 0.00 | 0.07 | 0.00 | 74 | 1009.0 |
| 20260901074558 | 60 | 4 | 6.0 | 12.0 | 0.00 | 0.07 | 0.00 | 73 | 1009.0 |
| 20260901073101 | 60 | 61 | 6.0 | 18.0 | 0.00 | 0.07 | 0.00 | 73 | 1008.9 |
| 20260901071558 | 60 | 66 | 4.0 | 15.0 | 0.00 | 0.07 | 0.00 | 73 | 1009.2 |
| 20260901070103 | 60 | 249 | 2.0 | 16.0 | 0.00 | 0.07 | 0.00 | 73 | 1009.0 |
| 20260901064552 | 60 | 98 | 2.0 | 8.0 | 0.00 | 0.07 | 0.00 | 74 | 1009.0 |
| 20260901063053 | 60 | 27 | 0.0 | 6.0 | 0.00 | 0.07 | 0.00 | 73 | 1009.1 |
| 20260901061546 | 61 | 289 | 2.0 | 10.0 | 0.00 | 0.07 | 0.00 | 69 | 1009.1 |
| 20260901060044 | 61 | 295 | 6.0 | 10.0 | 0.00 | 0.07 | 0.00 | 65 | 1008.7 |
| 20260901054545 | 62 | 314 | 7.0 | 17.0 | 0.00 | 0.07 | 0.07 | 65 | 1008.8 |
| 20260901053045 | 62 | 36 | 5.0 | 13.0 | 0.00 | 0.07 | 0.07 | 65 | 1009.1 |
| 20260901051544 | 62 | 80 | 7.0 | 17.0 | 0.00 | 0.07 | 0.07 | 65 | 1009.3 |
| 20260901050041 | 61 | 65 | 8.0 | 19.0 | 0.00 | 0.07 | 0.07 | 71 | 1009.2 |
| 20260901044554 | 60 | 70 | 6.0 | 21.0 | 0.00 | 0.07 | 0.07 | 75 | 1009.1 |
| 20260901043039 | 60 | 109 | 9.0 | 15.0 | 0.00 | 0.07 | 0.07 | 79 | 1009.3 |
| 20260901041540 | 60 | 15 | 6.0 | 14.0 | 0.00 | 0.07 | 0.07 | 78 | 1009.6 |
| 20260901040047 | 60 | 140 | 6.0 | 15.0 | 0.00 | 0.07 | 0.07 | 76 | 1009.8 |
| 20260901034538 | 60 | 285 | 1.0 | 6.0 | 0.00 | 0.07 | 0.07 | 74 | 1009.8 |
| 20260901033052 | 60 | 236 | 6.0 | 16.0 | 0.00 | 0.07 | 0.07 | 73 | 1009.8 |
| 20260901031534 | 60 | 242 | 10.0 | 26.0 | 0.00 | 0.07 | 0.07 | 76 | 1009.6 |
| 20260901030035 | 60 | 235 | 6.0 | 17.0 | 0.00 | 0.07 | 0.07 | 75 | 1009.1 |
| 20260901024532 | 61 | 322 | 3.0 | 8.0 | 0.00 | 0.07 | 0.07 | 69 | 1008.6 |
| 20260901023032 | 61 | 74 | 10.0 | 20.0 | 0.00 | 0.07 | 0.07 | 72 | 1008.5 |
| 20260901021534 | 60 | 123 | 9.0 | 17.0 | 0.00 | 0.07 | 0.07 | 75 | 1008.6 |
| 20260901020032 | 59 | 32 | 4.0 | 14.0 | 0.00 | 0.07 | 0.07 | 79 | 1008.7 |
| 20260901014526 | 59 | 329 | 5.0 | 14.0 | 0.00 | 0.07 | 0.07 | 78 | 1009.3 |
| 20260901013030 | 59 | 64 | 5.0 | 11.0 | 0.00 | 0.07 | 0.07 | 77 | 1009.5 |
| 20260901011522 | 59 | 347 | 2.0 | 12.0 | 0.01 | 0.07 | 0.07 | 76 | 1009.8 |
| 20260901010023 | 60 | 10 | 3.0 | 9.0 | 0.02 | 0.07 | 0.07 | 76 | 1009.9 |
| 20260901004519 | 60 | 256 | 5.0 | 12.0 | 0.03 | 0.07 | 0.07 | 75 | 1010.3 |
| 20260901003033 | 60 | 311 | 5.0 | 15.0 | 0.06 | 0.07 | 0.07 | 73 | 1010.6 |
| 20260901001517 | 61 | 220 | 9.0 | 16.0 | 0.06 | 0.06 | 0.06 | 74 | 1010.8 |
| 20260901000027 | 62 | 265 | 4.0 | 9.0 | 0.05 | 0.05 | 0.05 | 72 | 1010.6 |
| 20260831234508 | 63 | 56 | 5.0 | 11.0 | 0.04 | 0.04 | 0.04 | 67 | 1010.6 |
| 20260831233003 | 65 | 186 | 10.0 | 26.0 | 0.01 | 0.01 | 0.01 | 62 | 1009.8 |
| 20260831231602 | 68 | 219 | 14.0 | 30.0 | 0.00 | 0.00 | 0.00 | 51 | 1009.2 |
| 20260831230107 | 72 | 207 | 15.0 | 37.0 | 0.00 | 0.00 | 0.00 | 44 | 1007.8 |
| 20260831224559 | 75 | 8 | 8.0 | 15.0 | 0.00 | 0.00 | 0.00 | 36 | 1006.2 |
| 20260831223100 | 75 | 354 | 10.0 | 16.0 | 0.00 | 0.00 | 0.00 | 42 | 1005.4 |
| 20260831221605 | 75 | 330 | 5.0 | 10.0 | 0.00 | 0.00 | 0.00 | 47 | 1005.1 |
| 20260831220057 | 76 | 11 | 3.0 | 8.0 | 0.00 | 0.00 | 0.00 | 51 | 1005.0 |
| 20260831214603 | 78 | 288 | 6.0 | 12.0 | 0.00 | 0.00 | 0.00 | 48 | 1005.0 |
| 20260831213051 | 80 | 255 | 3.0 | 12.0 | 0.00 | 0.00 | 0.00 | 37 | 1005.4 |
| 20260831211552 | 80 | 34 | 3.0 | 17.0 | 0.00 | 0.00 | 0.00 | 32 | 1005.4 |
| 20260831210048 | 81 | 6 | 7.0 | 16.0 | 0.00 | 0.00 | 0.00 | 31 | 1005.2 |
| 20260831204546 | 81 | 264 | 5.0 | 10.0 | 0.00 | 0.00 | 0.00 | 33 | 1005.5 |
| 20260831203056 | 80 | 39 | 7.0 | 12.0 | 0.00 | 0.00 | 0.00 | 33 | 1005.9 |
| 20260831201548 | 80 | 155 | 7.0 | 12.0 | 0.00 | 0.00 | 0.00 | 33 | 1006.2 |
| 20260831200046 | 79 | 72 | 9.0 | 11.0 | 0.00 | 0.00 | 0.00 | 35 | 1006.3 |
| 20260831194541 | 80 | 120 | 5.0 | 13.0 | 0.00 | 0.00 | 0.00 | 33 | 1006.7 |
| 20260831193036 | 80 | 26 | 4.0 | 15.0 | 0.00 | 0.00 | 0.00 | 34 | 1006.9 |